createdAt,value
2022-10-22T00:02:23.652Z,15.00
2022-10-22T00:04:51.419Z,15.00
2022-10-22T00:07:18.808Z,14.90
2022-10-22T00:09:46.041Z,15.10
2022-10-22T00:12:14.315Z,14.90
2022-10-22T00:14:42.411Z,15.00
2022-10-22T00:17:11.561Z,15.00
2022-10-22T00:19:39.765Z,15.00
2022-10-22T00:22:07.853Z,15.20
2022-10-22T00:24:36.179Z,15.20
2022-10-22T00:27:03.976Z,15.20
2022-10-22T00:29:30.723Z,15.30
2022-10-22T00:31:57.530Z,15.30
2022-10-22T00:34:24.376Z,15.30
2022-10-22T00:36:51.948Z,15.20
2022-10-22T00:39:20.915Z,15.20
2022-10-22T00:41:49.843Z,15.20
2022-10-22T00:44:54.024Z,15.20
2022-10-22T00:47:23.932Z,15.20
2022-10-22T00:49:53.318Z,15.30
2022-10-22T00:52:20.959Z,15.30
2022-10-22T00:54:48.052Z,15.30
2022-10-22T00:57:16.681Z,15.30
2022-10-22T00:59:43.597Z,15.30
2022-10-22T01:02:10.381Z,15.30
2022-10-22T01:04:37.460Z,15.30
2022-10-22T01:07:04.558Z,15.30
2022-10-22T01:09:35.355Z,15.50
2022-10-22T01:12:18.518Z,15.50
2022-10-22T01:15:22.783Z,15.60
2022-10-22T01:18:11.636Z,15.60
2022-10-22T01:20:53.548Z,15.60
2022-10-22T01:24:02.023Z,15.60
2022-10-22T01:27:02.651Z,15.60
2022-10-22T01:29:50.583Z,15.50
2022-10-22T01:32:23.957Z,15.50
2022-10-22T01:35:04.281Z,15.60
2022-10-22T01:37:34.436Z,15.60
2022-10-22T01:40:02.456Z,15.50
2022-10-22T01:42:29.408Z,15.60
2022-10-22T01:44:56.300Z,15.50
2022-10-22T01:47:55.755Z,15.50
2022-10-22T01:50:37.579Z,15.60
2022-10-22T01:53:38.237Z,15.50
2022-10-22T01:56:13.166Z,15.50
2022-10-22T01:59:02.819Z,15.50
2022-10-22T02:02:04.617Z,15.40
2022-10-22T02:04:49.005Z,15.50
2022-10-22T02:07:20.246Z,15.40
2022-10-22T02:09:49.175Z,15.40
2022-10-22T02:12:18.093Z,15.40
2022-10-22T02:14:45.809Z,15.40
2022-10-22T02:17:17.067Z,15.40
2022-10-22T02:20:03.471Z,15.30
2022-10-22T02:22:30.614Z,15.30
2022-10-22T02:24:57.449Z,15.30
2022-10-22T02:27:36.215Z,15.20
2022-10-22T02:30:10.002Z,15.20
2022-10-22T02:32:43.567Z,15.10
2022-10-22T02:35:13.758Z,15.00
2022-10-22T02:37:41.430Z,15.00
2022-10-22T02:40:09.011Z,14.90
2022-10-22T02:42:38.156Z,15.00
2022-10-22T02:45:05.680Z,15.10
2022-10-22T02:47:32.651Z,15.10
2022-10-22T02:49:59.346Z,14.90
2022-10-22T02:52:26.155Z,14.90
2022-10-22T02:54:52.963Z,14.90
2022-10-22T02:59:51.374Z,14.80
2022-10-22T03:02:18.188Z,14.80
2022-10-22T03:04:45.749Z,14.70
2022-10-22T03:07:12.542Z,14.80
2022-10-22T03:09:39.375Z,14.80
2022-10-22T03:12:06.384Z,14.80
2022-10-22T03:14:33.328Z,14.80
2022-10-22T03:17:00.127Z,14.80
2022-10-22T03:19:26.899Z,14.80
2022-10-22T03:21:57.260Z,14.70
2022-10-22T03:24:39.924Z,14.60
2022-10-22T03:27:06.828Z,14.60
2022-10-22T03:29:37.732Z,14.60
2022-10-22T03:32:04.697Z,14.50
2022-10-22T03:34:31.824Z,14.40
2022-10-22T03:37:00.367Z,14.40
2022-10-22T03:39:29.542Z,14.30
2022-10-22T03:41:56.778Z,14.40
2022-10-22T03:44:24.447Z,14.50
2022-10-22T03:46:51.269Z,14.50
2022-10-22T03:49:18.074Z,14.60
2022-10-22T03:51:44.954Z,14.60
2022-10-22T03:54:11.738Z,14.60
2022-10-22T03:56:38.557Z,14.70
2022-10-22T03:59:05.461Z,14.60
2022-10-22T04:01:32.516Z,14.60
2022-10-22T04:03:59.572Z,14.70
2022-10-22T04:06:26.700Z,14.60
2022-10-22T04:08:53.579Z,14.60
2022-10-22T04:11:20.537Z,14.60
2022-10-22T04:13:47.323Z,14.70
2022-10-22T04:16:15.380Z,14.80
2022-10-22T04:18:43.404Z,14.80
2022-10-22T04:21:11.993Z,14.80
2022-10-22T04:23:38.888Z,14.80
2022-10-22T04:26:07.752Z,14.70
2022-10-22T04:28:35.398Z,14.70
2022-10-22T04:31:11.460Z,14.60
2022-10-22T04:33:38.619Z,14.60
2022-10-22T04:36:17.442Z,14.60
2022-10-22T04:38:45.890Z,14.50
2022-10-22T04:41:14.059Z,14.50
2022-10-22T04:43:41.433Z,14.60
2022-10-22T04:46:11.767Z,14.50
2022-10-22T04:48:41.369Z,14.40
2022-10-22T04:51:10.480Z,14.30
2022-10-22T04:53:37.641Z,14.40
2022-10-22T04:56:25.471Z,14.50
2022-10-22T04:58:54.972Z,14.50
2022-10-22T05:01:31.428Z,14.60
2022-10-22T05:04:01.120Z,14.50
2022-10-22T05:06:30.137Z,14.60
2022-10-22T05:08:59.071Z,14.70
2022-10-22T05:11:29.200Z,14.70
2022-10-22T05:13:57.151Z,14.60
2022-10-22T05:16:24.741Z,14.70
2022-10-22T05:18:51.587Z,14.70
2022-10-22T05:21:20.629Z,14.60
2022-10-22T05:23:49.384Z,14.60
2022-10-22T05:26:19.545Z,14.60
2022-10-22T05:28:47.936Z,14.50
2022-10-22T05:31:15.890Z,14.50
2022-10-22T05:33:43.922Z,14.50
2022-10-22T05:36:18.705Z,14.40
2022-10-22T05:38:45.608Z,14.50
2022-10-22T05:41:15.327Z,14.50
2022-10-22T05:43:42.072Z,14.50
2022-10-22T05:46:19.885Z,14.50
2022-10-22T05:48:56.494Z,14.50
2022-10-22T05:51:24.774Z,14.60
2022-10-22T05:53:56.956Z,14.60
2022-10-22T05:56:24.312Z,14.60
2022-10-22T05:58:51.427Z,14.60
2022-10-22T06:01:21.725Z,14.60
2022-10-22T06:03:49.383Z,14.60
2022-10-22T06:06:30.281Z,14.60
2022-10-22T06:09:02.131Z,14.50
2022-10-22T06:11:32.487Z,14.50
2022-10-22T06:14:01.871Z,14.40
2022-10-22T06:16:32.486Z,14.40
2022-10-22T06:19:03.059Z,14.40
2022-10-22T06:21:31.173Z,14.50
2022-10-22T06:23:59.785Z,14.60
2022-10-22T06:26:27.132Z,14.60
2022-10-22T06:28:55.907Z,14.60
2022-10-22T06:31:24.031Z,14.60
2022-10-22T06:33:50.827Z,14.80
2022-10-22T06:36:21.284Z,14.70
2022-10-22T06:38:51.304Z,14.80
2022-10-22T06:41:18.759Z,14.80
2022-10-22T06:43:46.962Z,14.80
2022-10-22T06:46:19.099Z,14.80
2022-10-22T06:48:58.670Z,14.80
2022-10-22T06:51:27.492Z,14.90
2022-10-22T06:53:55.921Z,14.90
2022-10-22T06:56:24.835Z,15.10
2022-10-22T06:58:53.577Z,15.10
2022-10-22T07:01:25.211Z,15.30
2022-10-22T07:03:53.037Z,15.40
2022-10-22T07:06:20.988Z,15.50
2022-10-22T07:08:48.105Z,15.50
2022-10-22T07:11:20.876Z,15.60
2022-10-22T07:13:48.579Z,15.70
2022-10-22T07:16:16.901Z,15.80
2022-10-22T07:18:44.478Z,15.90
2022-10-22T07:21:12.282Z,16.00
2022-10-22T07:23:39.385Z,16.00
2022-10-22T07:26:08.487Z,16.00
2022-10-22T07:28:38.927Z,16.00
2022-10-22T07:31:10.158Z,16.10
2022-10-22T07:33:37.751Z,16.00
2022-10-22T07:36:07.749Z,16.00
2022-10-22T07:38:35.276Z,16.10
2022-10-22T07:41:02.898Z,16.20
2022-10-22T07:43:29.745Z,16.30
2022-10-22T07:45:56.567Z,16.40
2022-10-22T07:48:23.844Z,16.60
2022-10-22T07:50:51.815Z,16.80
2022-10-22T07:53:31.803Z,17.00
2022-10-22T07:56:01.267Z,17.10
2022-10-22T07:58:30.402Z,17.00
2022-10-22T08:01:01.186Z,17.00
2022-10-22T08:03:31.777Z,17.00
2022-10-22T08:05:59.136Z,17.00
2022-10-22T08:08:29.764Z,17.00
2022-10-22T08:11:00.208Z,17.00
2022-10-22T08:13:27.636Z,17.00
2022-10-22T08:15:57.342Z,17.00
2022-10-22T08:18:24.961Z,17.10
2022-10-22T08:20:52.166Z,17.20
2022-10-22T08:23:22.029Z,17.20
2022-10-22T08:25:51.114Z,17.20
2022-10-22T08:28:21.154Z,17.30
2022-10-22T08:30:51.180Z,17.40
2022-10-22T08:33:17.964Z,17.40
2022-10-22T08:35:52.211Z,17.40
2022-10-22T08:38:28.751Z,17.40
2022-10-22T08:41:10.168Z,17.40
2022-10-22T08:43:58.599Z,17.40
2022-10-22T08:46:37.620Z,17.50
2022-10-22T08:49:39.859Z,17.50
2022-10-22T08:52:14.742Z,17.50
2022-10-22T08:55:02.817Z,17.40
2022-10-22T08:57:47.560Z,17.40
2022-10-22T09:00:22.970Z,17.40
2022-10-22T09:03:14.980Z,17.60
2022-10-22T09:06:13.019Z,17.70
2022-10-22T09:08:42.412Z,17.60
2022-10-22T09:11:22.715Z,17.70
2022-10-22T09:13:51.041Z,17.70
2022-10-22T09:16:19.444Z,17.70
2022-10-22T09:18:48.926Z,17.70
2022-10-22T09:21:27.335Z,17.80
2022-10-22T09:24:35.285Z,17.90
2022-10-22T09:27:08.462Z,18.00
2022-10-22T09:29:35.801Z,17.90
2022-10-22T09:32:02.694Z,17.90
2022-10-22T09:34:29.632Z,17.80
2022-10-22T09:37:05.522Z,17.90
2022-10-22T09:39:33.701Z,18.00
2022-10-22T09:42:00.654Z,18.00
2022-10-22T09:44:27.465Z,18.00
2022-10-22T09:46:54.562Z,18.10
2022-10-22T09:49:24.151Z,18.20
2022-10-22T09:51:57.945Z,18.20
2022-10-22T09:54:40.064Z,18.20
2022-10-22T09:57:17.589Z,18.30
2022-10-22T09:59:47.399Z,18.50
2022-10-22T10:02:26.569Z,18.60
2022-10-22T10:05:03.792Z,18.70
2022-10-22T10:07:32.762Z,18.80
2022-10-22T10:09:59.683Z,19.00
2022-10-22T10:12:33.813Z,19.10
2022-10-22T10:15:23.529Z,19.20
2022-10-22T10:18:08.964Z,19.10
2022-10-22T10:20:46.659Z,19.20
2022-10-22T10:23:14.137Z,19.10
2022-10-22T10:25:55.604Z,19.10
2022-10-22T10:28:42.784Z,19.00
2022-10-22T10:31:12.330Z,19.10
2022-10-22T10:33:56.677Z,18.90
2022-10-22T10:36:44.714Z,18.90
2022-10-22T10:39:14.050Z,18.80
2022-10-22T10:41:44.046Z,18.70
2022-10-22T10:44:10.798Z,18.60
2022-10-22T10:46:57.822Z,18.60
2022-10-22T10:49:27.284Z,18.60
2022-10-22T10:51:58.406Z,18.60
2022-10-22T10:54:33.948Z,18.40
2022-10-22T10:57:02.763Z,18.50
2022-10-22T11:00:06.398Z,18.60
2022-10-22T11:05:58.605Z,18.60
2022-10-22T11:08:31.324Z,18.50
2022-10-22T11:10:58.108Z,18.40
2022-10-22T11:13:39.222Z,18.30
2022-10-22T11:16:13.340Z,18.10
2022-10-22T11:18:45.542Z,18.00
2022-10-22T11:21:40.158Z,17.90
2022-10-22T11:24:21.964Z,17.90
2022-10-22T11:27:09.313Z,17.80
2022-10-22T11:29:43.351Z,17.80
2022-10-22T11:32:18.527Z,17.90
2022-10-22T11:35:07.109Z,17.80
2022-10-22T11:37:38.991Z,17.80
2022-10-22T11:40:06.390Z,17.90
2022-10-22T11:42:36.139Z,17.90
2022-10-22T11:45:14.615Z,17.90
2022-10-22T11:48:09.936Z,18.00
2022-10-22T11:50:47.575Z,17.80
2022-10-22T11:53:14.402Z,17.90
2022-10-22T11:55:48.499Z,17.90
2022-10-22T11:58:55.045Z,17.90
2022-10-22T12:01:28.511Z,17.70
2022-10-22T12:03:58.194Z,17.70
2022-10-22T12:06:26.821Z,17.80
2022-10-22T12:08:57.884Z,17.90
2022-10-22T12:11:29.142Z,17.80
2022-10-22T12:14:01.500Z,17.90
2022-10-22T12:16:55.254Z,17.90
2022-10-22T12:19:22.584Z,17.90
2022-10-22T12:22:13.392Z,17.90
2022-10-22T12:24:51.857Z,17.90
2022-10-22T12:27:22.367Z,17.90
2022-10-22T12:30:00.197Z,17.90
2022-10-22T12:32:36.025Z,17.90
2022-10-22T12:35:17.350Z,17.70
2022-10-22T12:37:44.543Z,17.70
2022-10-22T12:40:23.170Z,17.70
2022-10-22T12:42:53.035Z,17.60
2022-10-22T12:45:20.489Z,17.60
2022-10-22T12:47:52.413Z,17.70
2022-10-22T12:50:23.010Z,17.70
2022-10-22T12:52:49.907Z,17.90
2022-10-22T12:55:25.918Z,17.80
2022-10-22T12:57:53.071Z,17.70
2022-10-22T13:00:25.298Z,17.60
2022-10-22T13:02:53.172Z,17.50
2022-10-22T13:05:19.939Z,17.50
2022-10-22T13:07:53.439Z,17.60
2022-10-22T13:10:20.190Z,17.70
2022-10-22T13:12:51.383Z,17.70
2022-10-22T13:15:30.723Z,17.90
2022-10-22T13:18:18.736Z,17.90
2022-10-22T13:21:03.263Z,17.90
2022-10-22T13:23:32.603Z,17.90
2022-10-22T13:26:10.612Z,18.00
2022-10-22T13:28:37.509Z,17.90
2022-10-22T13:31:19.365Z,17.90
2022-10-22T13:33:51.351Z,17.90
2022-10-22T13:36:18.712Z,17.90
2022-10-22T13:38:45.861Z,17.90
2022-10-22T13:41:25.758Z,17.90
2022-10-22T13:43:53.888Z,17.80
2022-10-22T13:46:21.407Z,17.80
2022-10-22T13:48:50.027Z,17.70
2022-10-22T13:51:20.793Z,17.70
2022-10-22T13:53:49.055Z,17.60
2022-10-22T13:56:17.892Z,17.60
2022-10-22T13:58:46.486Z,17.40
2022-10-22T14:01:23.052Z,17.40
2022-10-22T14:03:52.434Z,17.30
2022-10-22T14:06:21.009Z,17.30
2022-10-22T14:08:54.438Z,17.10
2022-10-22T14:11:21.200Z,16.90
2022-10-22T14:13:47.937Z,16.90
2022-10-22T14:16:21.681Z,16.90
2022-10-22T14:18:49.524Z,16.90
2022-10-22T14:21:17.402Z,16.90
2022-10-22T14:23:46.564Z,17.10
2022-10-22T14:26:23.303Z,17.20
2022-10-22T14:29:11.419Z,17.10
2022-10-22T14:34:10.086Z,16.90
2022-10-22T14:36:36.890Z,16.90
2022-10-22T14:39:03.938Z,16.90
2022-10-22T14:41:31.214Z,16.80
2022-10-22T14:43:59.747Z,16.80
2022-10-22T14:46:26.806Z,16.70
2022-10-22T14:48:53.698Z,16.60
2022-10-22T14:51:21.878Z,16.60
2022-10-22T14:53:49.299Z,16.60
2022-10-22T14:56:21.327Z,16.50
2022-10-22T14:58:48.931Z,16.60
2022-10-22T15:01:15.938Z,16.60
2022-10-22T15:03:42.771Z,16.60
2022-10-22T15:06:09.554Z,16.50
2022-10-22T15:08:36.369Z,16.50
2022-10-22T15:11:08.300Z,16.50
2022-10-22T15:13:35.613Z,16.50
2022-10-22T15:16:05.759Z,16.50
2022-10-22T15:18:32.661Z,16.50
2022-10-22T15:21:04.724Z,16.50
2022-10-22T15:23:31.603Z,16.50
2022-10-22T15:25:58.457Z,16.40
2022-10-22T15:28:25.969Z,16.40
2022-10-22T15:30:58.254Z,16.50
2022-10-22T15:33:26.043Z,16.50
2022-10-22T15:35:52.907Z,16.50
2022-10-22T15:38:20.015Z,16.50
2022-10-22T15:40:46.959Z,16.50
2022-10-22T15:43:14.368Z,16.60
2022-10-22T15:48:10.436Z,16.60
2022-10-22T15:50:39.245Z,16.60
2022-10-22T15:53:06.160Z,16.60
2022-10-22T15:55:33.003Z,16.50
2022-10-22T15:58:01.924Z,16.50
2022-10-22T16:00:30.994Z,16.50
2022-10-22T16:02:57.739Z,16.40
2022-10-22T16:05:25.108Z,16.30
2022-10-22T16:07:55.751Z,16.20
2022-10-22T16:10:23.023Z,16.10
2022-10-22T16:12:51.649Z,16.00
2022-10-22T16:15:18.437Z,15.80
2022-10-22T16:17:45.430Z,15.80
2022-10-22T16:22:40.106Z,15.70
2022-10-22T16:25:07.527Z,15.80
2022-10-22T16:27:34.275Z,15.70
2022-10-22T16:30:01.064Z,15.70
2022-10-22T16:32:27.993Z,15.60
2022-10-22T16:34:54.719Z,15.60
2022-10-22T16:37:21.646Z,15.50
2022-10-22T16:39:49.748Z,15.50
2022-10-22T16:42:16.703Z,15.40
2022-10-22T16:44:43.519Z,15.40
2022-10-22T16:47:10.361Z,15.40
2022-10-22T16:49:37.359Z,15.30
2022-10-22T16:52:04.277Z,15.20
2022-10-22T16:54:31.261Z,15.20
2022-10-22T16:56:58.054Z,15.10
2022-10-22T16:59:24.952Z,15.10
2022-10-22T17:01:52.127Z,15.00
2022-10-22T17:04:19.340Z,14.90
2022-10-22T17:06:46.201Z,14.90
2022-10-22T17:09:13.996Z,15.00
2022-10-22T17:11:42.576Z,15.00
2022-10-22T17:14:10.935Z,14.90
2022-10-22T17:16:37.683Z,14.70
2022-10-22T17:19:04.947Z,14.60
2022-10-22T17:21:31.820Z,14.50
2022-10-22T17:23:58.855Z,14.40
2022-10-22T17:26:26.876Z,14.30
2022-10-22T17:28:54.624Z,14.20
2022-10-22T17:31:32.708Z,14.20
2022-10-22T17:33:59.984Z,14.20
2022-10-22T17:36:30.435Z,14.10
2022-10-22T17:39:02.433Z,14.00
2022-10-22T17:41:31.877Z,13.90
2022-10-22T17:43:59.754Z,13.80
2022-10-22T17:46:28.371Z,13.80
2022-10-22T17:48:56.851Z,13.70
2022-10-22T17:51:25.741Z,13.80
2022-10-22T17:53:53.095Z,13.70
2022-10-22T17:56:22.375Z,13.60
2022-10-22T17:58:49.854Z,13.60
2022-10-22T18:01:31.170Z,13.50
2022-10-22T18:04:03.203Z,13.50
2022-10-22T18:06:30.750Z,13.50
2022-10-22T18:08:57.919Z,13.40
2022-10-22T18:11:26.894Z,13.40
2022-10-22T18:13:55.585Z,13.40
2022-10-22T18:16:22.880Z,13.40
2022-10-22T18:18:52.961Z,13.40
2022-10-22T18:21:20.496Z,13.40
2022-10-22T18:23:47.760Z,13.30
2022-10-22T18:26:15.182Z,13.20
2022-10-22T18:28:42.008Z,13.30
2022-10-22T18:31:10.419Z,13.30
2022-10-22T18:33:37.619Z,13.20
2022-10-22T18:36:06.685Z,13.10
2022-10-22T18:38:33.637Z,13.10
2022-10-22T18:41:00.734Z,13.20
2022-10-22T18:43:27.682Z,13.10
2022-10-22T18:45:54.456Z,13.10
2022-10-22T18:48:22.906Z,13.20
2022-10-22T18:51:06.606Z,13.10
2022-10-22T18:53:34.570Z,13.00
2022-10-22T18:56:05.936Z,12.90
2022-10-22T18:58:40.419Z,12.80
2022-10-22T19:01:13.669Z,12.80
2022-10-22T19:03:40.859Z,12.80
2022-10-22T19:06:08.404Z,12.80
2022-10-22T19:08:36.580Z,12.90
2022-10-22T19:11:13.061Z,12.80
2022-10-22T19:13:40.890Z,12.70
2022-10-22T19:16:11.215Z,12.80
2022-10-22T19:18:42.137Z,12.80
2022-10-22T19:21:08.961Z,12.90
2022-10-22T19:23:35.757Z,12.90
2022-10-22T19:26:16.555Z,12.90
2022-10-22T19:28:43.771Z,12.80
2022-10-22T19:31:20.204Z,12.90
2022-10-22T19:33:48.115Z,12.70
2022-10-22T19:36:18.291Z,12.70
2022-10-22T19:38:47.440Z,12.60
2022-10-22T19:41:16.538Z,12.60
2022-10-22T19:43:44.499Z,12.60
2022-10-22T19:46:12.345Z,12.60
2022-10-22T19:48:39.681Z,12.70
2022-10-22T19:51:15.285Z,12.60
2022-10-22T19:53:42.238Z,12.60
2022-10-22T19:56:10.339Z,12.60
2022-10-22T19:58:38.174Z,12.60
2022-10-22T20:01:06.834Z,12.70
2022-10-22T20:03:36.486Z,12.60
2022-10-22T20:06:05.457Z,12.60
2022-10-22T20:08:34.666Z,12.60
2022-10-22T20:11:02.544Z,12.60
2022-10-22T20:13:29.534Z,12.60
2022-10-22T20:15:59.984Z,12.50
2022-10-22T20:18:26.941Z,12.40
2022-10-22T20:20:56.717Z,12.50
2022-10-22T20:23:24.969Z,12.50
2022-10-22T20:25:51.638Z,12.50
2022-10-22T20:28:21.661Z,12.60
2022-10-22T20:30:53.771Z,12.60
2022-10-22T20:33:20.534Z,12.60
2022-10-22T20:35:57.171Z,12.60
2022-10-22T20:38:23.990Z,12.70
2022-10-22T20:41:03.450Z,12.70
2022-10-22T20:43:30.230Z,12.60
2022-10-22T20:46:00.441Z,12.50
2022-10-22T20:48:31.254Z,12.60
2022-10-22T20:50:59.273Z,12.70
2022-10-22T20:53:27.141Z,12.80
2022-10-22T20:55:57.743Z,12.80
2022-10-22T20:58:27.056Z,12.80
2022-10-22T21:01:05.364Z,12.80
2022-10-22T21:06:05.270Z,12.80
2022-10-22T21:08:32.241Z,12.80
2022-10-22T21:11:02.408Z,12.80
2022-10-22T21:13:32.016Z,12.90
2022-10-22T21:15:59.034Z,12.80
2022-10-22T21:18:25.903Z,12.80
2022-10-22T21:20:52.927Z,12.90
2022-10-22T21:23:19.974Z,12.90
2022-10-22T21:25:57.924Z,12.90
2022-10-22T21:28:26.093Z,13.10
2022-10-22T21:30:52.910Z,13.10
2022-10-22T21:33:19.809Z,13.10
2022-10-22T21:35:54.018Z,13.10
2022-10-22T21:38:22.135Z,13.20
2022-10-22T21:40:49.375Z,13.30
2022-10-22T21:43:16.625Z,13.20
2022-10-22T21:45:43.857Z,13.10
2022-10-22T21:48:13.696Z,13.10
2022-10-22T21:50:42.279Z,13.10
2022-10-22T21:53:10.450Z,13.00
2022-10-22T21:55:39.002Z,13.00
2022-10-22T21:58:06.563Z,13.00
2022-10-22T22:00:33.897Z,13.10
2022-10-22T22:03:01.066Z,13.10
2022-10-22T22:05:28.750Z,13.10
2022-10-22T22:07:55.536Z,13.10
2022-10-22T22:10:22.423Z,13.00
2022-10-22T22:12:51.292Z,12.90
2022-10-22T22:15:19.938Z,13.00
2022-10-22T22:17:46.791Z,12.90
2022-10-22T22:20:13.530Z,12.90
2022-10-22T22:22:40.712Z,12.90
2022-10-22T22:25:08.081Z,12.90
2022-10-22T22:27:35.058Z,13.00
2022-10-22T22:30:02.070Z,13.00
2022-10-22T22:32:29.013Z,12.90
2022-10-22T22:34:56.162Z,13.00
2022-10-22T22:37:22.927Z,12.90
2022-10-22T22:39:49.837Z,13.00
2022-10-22T22:42:16.634Z,13.10
2022-10-22T22:44:43.396Z,13.20
2022-10-22T22:47:10.304Z,13.10
2022-10-22T22:49:37.099Z,13.10
2022-10-22T22:52:04.339Z,13.10
2022-10-22T22:54:31.124Z,13.10
2022-10-22T22:56:57.911Z,13.30
2022-10-22T22:59:24.696Z,13.30
2022-10-22T23:01:51.609Z,13.40
2022-10-22T23:04:23.617Z,13.50
2022-10-22T23:06:51.417Z,13.50
2022-10-22T23:11:48.194Z,13.40
2022-10-22T23:14:16.407Z,13.50
2022-10-22T23:16:46.453Z,13.50
2022-10-22T23:19:14.889Z,13.40
2022-10-22T23:21:46.189Z,13.40
2022-10-22T23:24:15.754Z,13.40
2022-10-22T23:26:45.611Z,13.40
2022-10-22T23:29:27.375Z,13.30
2022-10-22T23:31:55.240Z,13.30
2022-10-22T23:34:24.492Z,13.20
2022-10-22T23:36:52.370Z,13.20
2022-10-22T23:39:21.731Z,13.20
2022-10-22T23:41:48.694Z,13.20
2022-10-22T23:44:15.558Z,13.10
2022-10-22T23:46:42.671Z,13.10
2022-10-22T23:49:10.709Z,13.00
2022-10-22T23:51:38.586Z,13.10
2022-10-22T23:54:08.321Z,13.00
2022-10-22T23:56:35.848Z,12.90
2022-10-22T23:59:03.279Z,12.70
